Terminal Aerodrome Forecast
Issued by NWS Charleston, WV

Current Version | Previous Version | Graphics & Text | Print | Product List | Glossary On
Versions: 1 2 3 4 5 6 7 8 9 10 11 12 13 14 15 16 17 18 19 20 21 22 23 24 25 26 27 28 29
000
FTUS41 KRLX 220500
TAFPKB
TAF
KPKB 220534Z 2206/2306 00000KT 4SM BR FEW001
     FM220700 00000KT 2SM BR SCT001
     FM220800 00000KT 1/4SM FG OVC001
     FM221200 VRB03KT 2SM BR FEW001
     FM221300 VRB03KT 6SM HZ SKC
     FM221600 19004KT P6SM SCT045
     FM222200 18003KT 6SM HZ FEW050
      AMD NOT SKED=

USA.gov is the U.S. government's official web portal to all federal, state and local government web resources and services.